createdAt,value
2018-06-14T00:00:32.091Z,0.00
2018-06-14T00:01:32.081Z,0.00
2018-06-14T00:02:32.083Z,0.00
2018-06-14T00:03:32.080Z,0.00
2018-06-14T00:04:32.078Z,0.00
2018-06-14T00:05:32.077Z,0.00
2018-06-14T00:06:32.074Z,0.00
2018-06-14T00:07:32.076Z,0.00
2018-06-14T00:08:32.071Z,0.00
2018-06-14T00:09:32.069Z,0.00
2018-06-14T00:10:32.067Z,0.00
2018-06-14T00:11:32.066Z,0.00
2018-06-14T00:12:32.064Z,0.00
2018-06-14T00:13:32.063Z,0.00
2018-06-14T00:14:32.061Z,0.00
2018-06-14T00:15:32.059Z,0.00
2018-06-14T00:16:32.058Z,0.00
2018-06-14T00:17:32.102Z,0.00
2018-06-14T00:18:32.055Z,0.00
2018-06-14T00:19:32.052Z,0.00
2018-06-14T00:20:32.053Z,0.00
2018-06-14T00:21:32.049Z,0.00
2018-06-14T00:22:32.046Z,0.00
2018-06-14T00:23:32.045Z,0.00
2018-06-14T00:24:32.043Z,0.00
2018-06-14T00:25:32.040Z,0.00
2018-06-14T00:26:32.039Z,0.00
2018-06-14T00:27:32.040Z,0.00
2018-06-14T00:28:32.035Z,0.00
2018-06-14T00:29:32.032Z,0.00
2018-06-14T00:30:32.031Z,0.00
2018-06-14T00:31:32.029Z,0.00
2018-06-14T00:32:32.028Z,0.00
2018-06-14T00:33:32.025Z,0.00
2018-06-14T00:34:32.023Z,0.00
2018-06-14T00:35:32.025Z,0.00
2018-06-14T00:36:32.019Z,0.00
2018-06-14T00:37:32.018Z,0.00
2018-06-14T00:38:32.014Z,0.00
2018-06-14T00:39:32.014Z,0.00
2018-06-14T00:40:32.013Z,0.00
2018-06-14T00:41:32.010Z,0.00
2018-06-14T00:42:32.007Z,0.00
2018-06-14T00:43:32.006Z,0.00
2018-06-14T00:44:32.005Z,0.00
2018-06-14T00:45:32.001Z,0.00
2018-06-14T00:46:31.999Z,0.00
2018-06-14T00:47:31.997Z,0.00
2018-06-14T00:48:31.996Z,0.00
2018-06-14T00:49:31.992Z,0.00
2018-06-14T00:50:31.991Z,0.00
2018-06-14T00:51:31.990Z,0.00
2018-06-14T00:52:31.987Z,0.00
2018-06-14T00:53:31.986Z,0.00
2018-06-14T00:54:31.983Z,0.00
2018-06-14T00:55:31.982Z,0.00
2018-06-14T00:56:31.981Z,0.00
2018-06-14T00:57:31.976Z,0.00
2018-06-14T00:58:31.976Z,0.00
2018-06-14T00:59:31.974Z,0.00
2018-06-14T01:00:31.971Z,0.00
2018-06-14T01:01:31.968Z,0.00
2018-06-14T01:02:31.967Z,0.00
2018-06-14T01:03:31.965Z,0.00
2018-06-14T01:04:31.963Z,0.00
2018-06-14T01:05:31.959Z,0.00
2018-06-14T01:06:31.958Z,0.00
2018-06-14T01:07:31.957Z,0.00
2018-06-14T01:08:31.957Z,0.00
2018-06-14T01:09:31.951Z,0.00
2018-06-14T01:10:31.950Z,0.00
2018-06-14T01:11:31.948Z,0.00
2018-06-14T01:12:31.946Z,0.00
2018-06-14T01:13:31.943Z,0.00
2018-06-14T01:14:31.942Z,0.00
2018-06-14T01:15:31.940Z,0.00
2018-06-14T01:16:31.938Z,0.00
2018-06-14T01:17:31.935Z,0.00
2018-06-14T01:18:31.933Z,0.00
2018-06-14T01:19:31.930Z,0.00
2018-06-14T01:20:31.929Z,0.00
2018-06-14T01:21:31.926Z,0.00
2018-06-14T01:22:31.968Z,0.00
2018-06-14T01:23:31.921Z,0.00
2018-06-14T01:24:31.920Z,0.00
2018-06-14T01:25:31.917Z,0.00
2018-06-14T01:26:31.915Z,0.00
2018-06-14T01:27:31.914Z,0.00
2018-06-14T01:28:31.912Z,0.00
2018-06-14T01:29:31.910Z,0.00
2018-06-14T01:30:31.906Z,0.00
2018-06-14T01:31:31.903Z,0.00
2018-06-14T01:32:31.903Z,0.00
2018-06-14T01:33:31.900Z,0.00
2018-06-14T01:34:31.896Z,0.00
2018-06-14T01:35:31.895Z,0.00
2018-06-14T01:36:31.893Z,0.00
2018-06-14T01:37:31.890Z,0.00
2018-06-14T01:38:31.888Z,0.00
2018-06-14T01:39:31.886Z,0.00
2018-06-14T01:40:31.884Z,0.00
2018-06-14T01:41:31.882Z,0.00
2018-06-14T01:42:31.881Z,0.00
2018-06-14T01:43:31.877Z,0.00
2018-06-14T01:44:31.875Z,0.00
2018-06-14T01:45:31.871Z,0.00
2018-06-14T01:46:31.869Z,0.00
2018-06-14T01:47:31.867Z,0.00
2018-06-14T01:48:31.865Z,0.00
2018-06-14T01:49:31.862Z,0.00
2018-06-14T01:50:31.860Z,0.00
2018-06-14T01:51:31.858Z,0.00
2018-06-14T01:52:31.856Z,0.00
2018-06-14T01:53:31.853Z,0.00
2018-06-14T01:54:31.849Z,0.00
2018-06-14T01:55:31.849Z,0.00
2018-06-14T01:56:31.847Z,0.00
2018-06-14T01:57:31.842Z,0.00
2018-06-14T01:58:31.841Z,0.00
2018-06-14T01:59:31.839Z,0.00
2018-06-14T02:00:31.841Z,0.00
2018-06-14T02:01:31.834Z,0.00
2018-06-14T02:02:31.831Z,0.00
2018-06-14T02:03:31.829Z,0.00
2018-06-14T02:04:31.827Z,0.00
2018-06-14T02:05:31.824Z,0.00
2018-06-14T02:06:31.822Z,0.00
2018-06-14T02:07:31.819Z,0.00
2018-06-14T02:08:31.817Z,0.00
2018-06-14T02:09:31.813Z,0.00
2018-06-14T02:10:31.811Z,0.00
2018-06-14T02:11:31.810Z,0.00
2018-06-14T02:12:31.808Z,0.00
2018-06-14T02:13:31.804Z,0.00
2018-06-14T02:14:31.802Z,0.00
2018-06-14T02:15:31.800Z,0.00
2018-06-14T02:16:31.797Z,0.00
2018-06-14T02:17:31.793Z,0.00
2018-06-14T02:18:31.792Z,0.00
2018-06-14T02:19:31.789Z,0.00
2018-06-14T02:20:31.787Z,0.00
2018-06-14T02:21:31.788Z,0.00
2018-06-14T02:22:31.781Z,0.00
2018-06-14T02:23:31.779Z,0.00
2018-06-14T02:24:31.776Z,0.00
2018-06-14T02:25:31.774Z,0.00
2018-06-14T02:26:31.771Z,0.00
2018-06-14T02:27:31.770Z,0.00
2018-06-14T02:28:31.767Z,0.00
2018-06-14T02:29:31.764Z,0.00
2018-06-14T02:30:31.761Z,0.00
2018-06-14T02:31:31.758Z,0.00
2018-06-14T02:32:31.757Z,0.00
2018-06-14T02:33:31.753Z,0.00
2018-06-14T02:34:31.750Z,0.00
2018-06-14T02:35:31.748Z,0.00
2018-06-14T02:36:31.746Z,0.00
2018-06-14T02:37:31.742Z,0.00
2018-06-14T02:38:31.745Z,0.00
2018-06-14T02:39:31.738Z,0.00
2018-06-14T02:40:31.737Z,0.00
2018-06-14T02:41:31.732Z,0.00
2018-06-14T02:42:31.730Z,0.00
2018-06-14T02:43:31.727Z,0.00
2018-06-14T02:44:31.724Z,0.00
2018-06-14T02:45:31.721Z,0.00
2018-06-14T02:46:31.719Z,0.00
2018-06-14T02:47:31.717Z,0.00
2018-06-14T02:48:31.714Z,0.00
2018-06-14T02:49:31.715Z,0.00
2018-06-14T02:50:31.709Z,0.00
2018-06-14T02:51:31.707Z,0.00
2018-06-14T02:52:31.704Z,0.00
2018-06-14T02:53:31.704Z,0.00
2018-06-14T02:54:31.698Z,0.00
2018-06-14T02:55:31.698Z,5.63
2018-06-14T02:56:31.693Z,5.63
2018-06-14T02:57:31.690Z,5.63
2018-06-14T02:58:31.688Z,5.63
2018-06-14T02:59:31.685Z,5.63
2018-06-14T03:00:31.684Z,5.63
2018-06-14T03:01:31.679Z,5.63
2018-06-14T03:02:31.677Z,5.63
2018-06-14T03:03:31.674Z,5.63
2018-06-14T03:04:31.672Z,5.63
2018-06-14T03:05:31.668Z,5.63
2018-06-14T03:06:31.666Z,5.63
2018-06-14T03:07:31.663Z,5.63
2018-06-14T03:08:31.660Z,11.25
2018-06-14T03:09:31.657Z,11.25
2018-06-14T03:10:31.655Z,11.25
2018-06-14T03:11:31.654Z,11.25
2018-06-14T03:12:31.650Z,11.25
2018-06-14T03:13:31.646Z,11.25
2018-06-14T03:14:31.652Z,11.25
2018-06-14T03:15:31.642Z,11.25
2018-06-14T03:16:31.639Z,11.25
2018-06-14T03:17:31.635Z,16.88
2018-06-14T03:18:31.634Z,16.88
2018-06-14T03:19:31.631Z,16.88
2018-06-14T03:20:31.628Z,16.88
2018-06-14T03:21:31.623Z,16.88
2018-06-14T03:22:31.622Z,16.88
2018-06-14T03:23:31.619Z,22.50
2018-06-14T03:24:31.619Z,22.50
2018-06-14T03:25:31.613Z,22.50
2018-06-14T03:26:31.611Z,28.13
2018-06-14T03:27:31.609Z,28.13
2018-06-14T03:28:31.605Z,33.75
2018-06-14T03:29:31.603Z,33.75
2018-06-14T03:30:31.600Z,39.38
2018-06-14T03:31:31.598Z,39.38
2018-06-14T03:32:31.596Z,45.00
2018-06-14T03:33:31.591Z,45.00
2018-06-14T03:34:31.589Z,45.00
2018-06-14T03:35:31.588Z,50.63
2018-06-14T03:36:31.585Z,50.63
2018-06-14T03:37:31.581Z,56.25
2018-06-14T03:38:31.578Z,56.25
2018-06-14T03:39:31.576Z,61.88
2018-06-14T03:40:31.574Z,61.88
2018-06-14T03:41:31.573Z,61.88
2018-06-14T03:42:31.569Z,67.50
2018-06-14T03:43:31.565Z,67.50
2018-06-14T03:44:31.565Z,73.13
2018-06-14T03:45:31.560Z,73.13
2018-06-14T03:46:31.616Z,78.75
2018-06-14T03:47:31.555Z,78.75
2018-06-14T03:48:31.553Z,78.75
2018-06-14T03:49:31.550Z,84.38
2018-06-14T03:50:31.547Z,84.38
2018-06-14T03:51:31.545Z,84.38
2018-06-14T03:52:31.542Z,84.38
2018-06-14T03:53:31.539Z,90.00
2018-06-14T03:54:31.536Z,90.00
2018-06-14T03:55:31.532Z,90.00
2018-06-14T03:56:31.534Z,90.00
2018-06-14T03:57:31.530Z,95.63
2018-06-14T03:58:31.527Z,95.63
2018-06-14T03:59:31.525Z,95.63
2018-06-14T04:00:31.523Z,95.63
2018-06-14T04:01:31.519Z,95.63
2018-06-14T04:02:31.516Z,95.63
2018-06-14T04:03:31.514Z,95.63
2018-06-14T04:04:31.512Z,95.63
2018-06-14T04:05:31.508Z,101.25
2018-06-14T04:06:31.507Z,101.25
2018-06-14T04:07:31.504Z,106.88
2018-06-14T04:08:31.502Z,106.88
2018-06-14T04:09:31.499Z,106.88
2018-06-14T04:10:31.499Z,106.88
2018-06-14T04:11:31.494Z,112.50
2018-06-14T04:12:31.493Z,112.50
2018-06-14T04:13:31.489Z,112.50
2018-06-14T04:14:31.487Z,118.13
2018-06-14T04:15:31.485Z,118.13
2018-06-14T04:16:31.483Z,118.13
2018-06-14T04:17:31.479Z,123.75
2018-06-14T04:18:31.494Z,123.75
2018-06-14T04:19:31.474Z,123.75
2018-06-14T04:20:31.495Z,129.38
2018-06-14T04:21:31.470Z,129.38
2018-06-14T04:22:31.468Z,129.38
2018-06-14T04:23:31.465Z,135.00
2018-06-14T04:24:31.465Z,135.00
2018-06-14T04:25:31.464Z,140.63
2018-06-14T04:26:31.459Z,140.63
2018-06-14T04:27:31.494Z,140.63
2018-06-14T04:28:31.456Z,151.88
2018-06-14T04:29:31.452Z,146.25
2018-06-14T04:30:31.450Z,146.25
2018-06-14T04:31:31.448Z,146.25
2018-06-14T04:32:31.447Z,146.25
2018-06-14T04:33:31.444Z,151.88
2018-06-14T04:34:31.444Z,151.88
2018-06-14T04:35:31.440Z,151.88
2018-06-14T04:36:31.442Z,157.50
2018-06-14T04:37:31.435Z,157.50
2018-06-14T04:38:31.433Z,157.50
2018-06-14T04:39:31.432Z,163.13
2018-06-14T04:40:31.432Z,163.13
2018-06-14T04:41:31.426Z,157.50
2018-06-14T04:42:31.425Z,151.88
2018-06-14T04:43:31.424Z,151.88
2018-06-14T04:44:31.422Z,151.88
2018-06-14T04:45:31.420Z,146.25
2018-06-14T04:46:31.419Z,140.63
2018-06-14T04:47:31.418Z,135.00
2018-06-14T04:48:31.416Z,129.38
2018-06-14T04:49:31.413Z,135.00
2018-06-14T04:50:31.411Z,135.00
2018-06-14T04:51:31.409Z,140.63
2018-06-14T04:52:31.407Z,140.63
2018-06-14T04:53:31.456Z,140.63
2018-06-14T04:54:31.403Z,140.63
2018-06-14T04:55:31.401Z,146.25
2018-06-14T04:56:31.400Z,151.88
2018-06-14T04:57:31.399Z,157.50
2018-06-14T04:58:31.396Z,163.13
2018-06-14T04:59:31.396Z,168.75
2018-06-14T05:00:31.394Z,180.00
2018-06-14T05:01:31.390Z,191.25
2018-06-14T05:02:31.401Z,202.50
2018-06-14T05:03:31.389Z,202.50
2018-06-14T05:04:31.386Z,208.13
2018-06-14T05:05:31.384Z,213.75
2018-06-14T05:06:31.382Z,219.38
2018-06-14T05:07:31.382Z,230.63
2018-06-14T05:08:31.380Z,230.63
2018-06-14T05:09:31.377Z,230.63
2018-06-14T05:10:31.376Z,241.88
2018-06-14T05:11:31.375Z,247.50
2018-06-14T05:12:31.374Z,247.50
2018-06-14T05:13:31.371Z,253.13
2018-06-14T05:14:31.371Z,253.13
2018-06-14T05:15:31.371Z,258.75
2018-06-14T05:16:31.369Z,258.75
2018-06-14T05:17:31.368Z,399.38
2018-06-14T05:18:31.365Z,1338.75
2018-06-14T05:19:31.364Z,2053.13
2018-06-14T05:20:31.363Z,2103.75
2018-06-14T05:21:31.362Z,2154.38
2018-06-14T05:22:31.361Z,2216.25
2018-06-14T05:23:31.411Z,2131.88
2018-06-14T05:24:31.362Z,1923.75
2018-06-14T05:25:31.362Z,2047.50
2018-06-14T05:26:31.364Z,2205.00
2018-06-14T05:27:31.366Z,2205.00
2018-06-14T05:28:31.368Z,2109.38
2018-06-14T05:29:31.376Z,2030.63
2018-06-14T05:30:31.373Z,2289.38
2018-06-14T05:31:31.377Z,2295.00
2018-06-14T05:32:31.383Z,2261.25
2018-06-14T05:33:31.384Z,2328.75
2018-06-14T05:34:31.393Z,2306.25
2018-06-14T05:35:31.395Z,2340.00
2018-06-14T05:36:31.401Z,2396.25
2018-06-14T05:37:31.405Z,2216.25
2018-06-14T05:38:31.413Z,2373.75
2018-06-14T05:39:31.418Z,2340.00
2018-06-14T05:40:31.427Z,2435.63
2018-06-14T05:41:31.432Z,2373.75
2018-06-14T05:42:31.475Z,2086.88
2018-06-14T05:43:31.446Z,1642.50
2018-06-14T05:44:31.480Z,1209.38
2018-06-14T05:45:31.460Z,765.00
2018-06-14T05:46:31.467Z,461.25
2018-06-14T05:47:31.476Z,388.13
2018-06-14T05:48:31.483Z,382.50
2018-06-14T05:49:31.489Z,376.88
2018-06-14T05:50:31.495Z,371.25
2018-06-14T05:51:31.504Z,376.88
2018-06-14T05:52:31.511Z,376.88
2018-06-14T05:53:31.517Z,382.50
2018-06-14T05:54:31.523Z,388.13
2018-06-14T05:55:31.529Z,388.13
2018-06-14T05:56:31.536Z,388.13
2018-06-14T05:57:31.541Z,388.13
2018-06-14T05:58:31.546Z,393.75
2018-06-14T05:59:31.551Z,393.75
2018-06-14T06:00:31.558Z,399.38
2018-06-14T06:01:31.564Z,399.38
2018-06-14T06:02:31.569Z,405.00
2018-06-14T06:03:31.574Z,410.63
2018-06-14T06:04:31.582Z,410.63
2018-06-14T06:05:31.584Z,410.63
2018-06-14T06:06:31.589Z,410.63
2018-06-14T06:07:31.593Z,399.38
2018-06-14T06:08:31.598Z,405.00
2018-06-14T06:09:31.602Z,393.75
2018-06-14T06:10:31.608Z,399.38
2018-06-14T06:11:31.611Z,393.75
2018-06-14T06:12:31.615Z,382.50
2018-06-14T06:13:31.618Z,371.25
2018-06-14T06:14:31.621Z,371.25
2018-06-14T06:15:31.626Z,376.88
2018-06-14T06:16:31.630Z,376.88
2018-06-14T06:17:31.633Z,360.00
2018-06-14T06:18:31.637Z,354.38
2018-06-14T06:19:31.641Z,348.75
2018-06-14T06:20:31.645Z,360.00
2018-06-14T06:21:31.647Z,360.00
2018-06-14T06:22:31.650Z,360.00
2018-06-14T06:23:31.682Z,365.63
2018-06-14T06:24:31.656Z,365.63
2018-06-14T06:25:31.659Z,348.75
2018-06-14T06:26:31.664Z,343.13
2018-06-14T06:27:31.667Z,360.00
2018-06-14T06:28:31.670Z,371.25
2018-06-14T06:29:31.673Z,371.25
2018-06-14T06:30:31.677Z,365.63
2018-06-14T06:31:31.678Z,348.75
2018-06-14T06:32:31.683Z,348.75
2018-06-14T06:33:31.741Z,354.38
2018-06-14T06:34:31.689Z,354.38
2018-06-14T06:35:31.690Z,360.00
2018-06-14T06:36:31.696Z,360.00
2018-06-14T06:37:31.696Z,360.00
2018-06-14T06:38:31.697Z,371.25
2018-06-14T06:39:31.702Z,376.88
2018-06-14T06:40:31.703Z,376.88
2018-06-14T06:41:31.706Z,382.50
2018-06-14T06:42:31.709Z,393.75
2018-06-14T06:43:31.712Z,388.13
2018-06-14T06:44:31.716Z,393.75
2018-06-14T06:45:31.719Z,393.75
2018-06-14T06:46:31.720Z,388.13
2018-06-14T06:47:31.723Z,388.13
2018-06-14T06:48:31.726Z,382.50
2018-06-14T06:49:31.728Z,393.75
2018-06-14T06:50:31.731Z,399.38
2018-06-14T06:51:31.735Z,393.75
2018-06-14T06:52:31.737Z,405.00
2018-06-14T06:53:31.742Z,410.63
2018-06-14T06:54:31.743Z,416.25
2018-06-14T06:55:31.745Z,416.25
2018-06-14T06:56:31.746Z,421.88
2018-06-14T06:57:31.749Z,416.25
2018-06-14T06:58:31.752Z,421.88
2018-06-14T06:59:31.755Z,438.75
2018-06-14T07:00:31.757Z,427.50
2018-06-14T07:01:31.760Z,427.50
2018-06-14T07:02:31.763Z,421.88
2018-06-14T07:03:31.766Z,427.50
2018-06-14T07:04:31.770Z,421.88
2018-06-14T07:05:31.770Z,427.50
2018-06-14T07:06:31.844Z,433.13
2018-06-14T07:07:31.777Z,427.50
2018-06-14T07:08:31.780Z,433.13
2018-06-14T07:09:31.782Z,427.50
2018-06-14T07:10:31.787Z,433.13
2018-06-14T07:11:31.818Z,444.38
2018-06-14T07:12:31.791Z,444.38
2018-06-14T07:13:31.794Z,450.00
2018-06-14T07:14:31.796Z,455.63
2018-06-14T07:15:31.800Z,466.88
2018-06-14T07:16:31.802Z,472.50
2018-06-14T07:17:31.806Z,478.13
2018-06-14T07:18:31.809Z,483.75
2018-06-14T07:19:31.812Z,495.00
2018-06-14T07:20:31.816Z,500.63
2018-06-14T07:21:31.827Z,511.88
2018-06-14T07:22:31.823Z,517.50
2018-06-14T07:23:31.825Z,534.38
2018-06-14T07:24:31.828Z,1051.88
2018-06-14T07:25:31.832Z,2216.25
2018-06-14T07:26:31.833Z,3155.63
2018-06-14T07:27:31.838Z,3504.38
2018-06-14T07:28:31.842Z,3532.50
2018-06-14T07:29:31.846Z,3453.75
2018-06-14T07:30:31.850Z,3549.38
2018-06-14T07:31:31.855Z,3543.75
2018-06-14T07:32:31.861Z,3510.00
2018-06-14T07:33:31.866Z,3403.13
2018-06-14T07:34:31.874Z,3594.38
2018-06-14T07:35:31.881Z,3706.88
2018-06-14T07:36:31.887Z,3673.13
2018-06-14T07:37:31.894Z,3802.50
2018-06-14T07:38:31.902Z,3774.38
2018-06-14T07:39:31.915Z,3763.13
2018-06-14T07:40:31.920Z,3408.75
2018-06-14T07:41:31.928Z,3538.13
2018-06-14T07:42:31.944Z,3684.38
2018-06-14T07:43:31.950Z,3757.50
2018-06-14T07:44:31.959Z,3841.88
2018-06-14T07:45:31.968Z,3813.75
2018-06-14T07:46:31.979Z,3735.00
2018-06-14T07:47:31.991Z,3701.25
2018-06-14T07:48:32.003Z,3785.63
2018-06-14T07:49:32.015Z,3684.38
2018-06-14T07:50:32.026Z,3577.50
2018-06-14T07:51:32.038Z,3465.00
2018-06-14T07:52:32.050Z,3549.38
2018-06-14T07:53:32.062Z,3555.00
2018-06-14T07:54:32.078Z,3588.75
2018-06-14T07:55:32.088Z,3723.75
2018-06-14T07:56:32.102Z,3611.25
2018-06-14T07:57:32.114Z,3532.50
2018-06-14T07:58:32.128Z,3667.50
2018-06-14T07:59:32.141Z,3605.63
2018-06-14T08:00:32.157Z,3560.63
2018-06-14T08:01:32.169Z,3706.88
2018-06-14T08:02:32.183Z,3571.88
2018-06-14T08:03:32.197Z,3678.75
2018-06-14T08:04:32.212Z,3633.75
2018-06-14T08:05:32.224Z,3605.63
2018-06-14T08:06:32.292Z,3673.13
2018-06-14T08:07:32.256Z,3498.75
2018-06-14T08:08:32.269Z,3521.25
2018-06-14T08:09:32.283Z,3498.75
2018-06-14T08:10:32.298Z,3583.13
2018-06-14T08:11:32.313Z,3678.75
2018-06-14T08:12:32.462Z,3453.75
2018-06-14T08:13:32.343Z,3498.75
2018-06-14T08:14:32.360Z,3555.00
2018-06-14T08:15:32.375Z,3526.88
2018-06-14T08:16:32.387Z,3521.25
2018-06-14T08:17:32.406Z,3442.50
2018-06-14T08:18:32.417Z,3526.88
2018-06-14T08:19:32.434Z,3346.88
2018-06-14T08:20:32.447Z,3465.00
2018-06-14T08:21:32.462Z,3515.63
2018-06-14T08:22:32.477Z,3673.13
2018-06-14T08:23:32.495Z,3718.13
2018-06-14T08:24:32.507Z,731.25
2018-06-14T08:25:32.521Z,1265.63
2018-06-14T08:26:32.536Z,590.63
2018-06-14T08:27:32.551Z,950.63
2018-06-14T08:28:32.567Z,3335.63
2018-06-14T08:29:32.581Z,1108.13
2018-06-14T08:30:32.595Z,3335.63
2018-06-14T08:31:32.610Z,3386.25
2018-06-14T08:32:32.625Z,1636.88
2018-06-14T08:33:32.639Z,3256.88
2018-06-14T08:34:32.654Z,3425.63
2018-06-14T08:35:32.668Z,3391.88
2018-06-14T08:36:32.682Z,1687.50
2018-06-14T08:37:32.696Z,669.38
2018-06-14T08:38:32.711Z,3746.25
2018-06-14T08:39:32.724Z,714.38
2018-06-14T08:40:32.739Z,579.38
2018-06-14T08:41:32.752Z,506.25
2018-06-14T08:42:32.766Z,601.88
2018-06-14T08:43:32.780Z,3380.63
2018-06-14T08:44:32.797Z,1766.25
2018-06-14T08:45:32.807Z,2469.38
2018-06-14T08:46:32.820Z,3622.50
2018-06-14T08:47:32.834Z,3510.00
2018-06-14T08:48:32.848Z,444.38
2018-06-14T08:49:32.860Z,393.75
2018-06-14T08:50:32.872Z,562.50
2018-06-14T08:51:32.887Z,3515.63
2018-06-14T08:52:32.899Z,3436.88
2018-06-14T08:53:32.911Z,3459.38
2018-06-14T08:54:32.924Z,3363.75
2018-06-14T08:55:32.938Z,3403.13
2018-06-14T08:56:32.950Z,3487.50
2018-06-14T08:57:32.961Z,3403.13
2018-06-14T08:58:32.976Z,3498.75
2018-06-14T08:59:32.989Z,3448.13
2018-06-14T09:00:33.004Z,3279.38
2018-06-14T09:01:33.016Z,3453.75
2018-06-14T09:02:33.029Z,3240.00
2018-06-14T09:03:33.043Z,3296.25
2018-06-14T09:04:33.059Z,3425.63
2018-06-14T09:05:33.070Z,3307.50
2018-06-14T09:06:33.083Z,3324.38
2018-06-14T09:07:33.097Z,3363.75
2018-06-14T09:08:33.116Z,3245.63
2018-06-14T09:09:33.125Z,3279.38
2018-06-14T09:10:33.139Z,3290.63
2018-06-14T09:11:33.153Z,1445.63
2018-06-14T09:12:33.167Z,1507.50
2018-06-14T09:13:33.182Z,1749.38
2018-06-14T09:14:33.195Z,1327.50
2018-06-14T09:15:33.209Z,2745.00
2018-06-14T09:16:33.226Z,3256.88
2018-06-14T09:17:33.236Z,3240.00
2018-06-14T09:18:33.250Z,2896.88
2018-06-14T09:19:33.265Z,3313.13
2018-06-14T09:20:33.278Z,3397.50
2018-06-14T09:21:33.295Z,3397.50
2018-06-14T09:22:33.306Z,3375.00
2018-06-14T09:23:33.325Z,3330.00
2018-06-14T09:24:33.334Z,2081.25
2018-06-14T09:25:33.347Z,1603.13
2018-06-14T09:26:33.362Z,2458.13
2018-06-14T09:27:33.377Z,697.50
2018-06-14T09:28:33.390Z,3301.88
2018-06-14T09:29:33.402Z,3380.63
2018-06-14T09:30:33.418Z,3352.50
2018-06-14T09:31:33.430Z,1321.88
2018-06-14T09:32:33.445Z,596.25
2018-06-14T09:33:33.458Z,523.13
2018-06-14T09:34:33.472Z,500.63
2018-06-14T09:35:33.485Z,506.25
2018-06-14T09:36:33.500Z,568.13
2018-06-14T09:37:33.512Z,3155.63
2018-06-14T09:38:33.527Z,3060.00
2018-06-14T09:39:33.539Z,3273.75
2018-06-14T09:40:33.556Z,3285.00
2018-06-14T09:41:33.564Z,3189.38
2018-06-14T09:42:33.576Z,3161.25
2018-06-14T09:43:33.594Z,3009.38
2018-06-14T09:44:33.604Z,3060.00
2018-06-14T09:45:33.617Z,2160.00
2018-06-14T09:46:33.630Z,697.50
2018-06-14T09:47:33.642Z,663.75
2018-06-14T09:48:33.658Z,2610.00
2018-06-14T09:49:33.667Z,838.13
2018-06-14T09:50:33.682Z,697.50
2018-06-14T09:51:33.694Z,618.75
2018-06-14T09:52:33.707Z,601.88
2018-06-14T09:53:33.719Z,545.63
2018-06-14T09:54:33.731Z,556.88
2018-06-14T09:55:33.743Z,551.25
2018-06-14T09:56:33.757Z,523.13
2018-06-14T09:57:33.767Z,495.00
2018-06-14T09:58:33.780Z,511.88
2018-06-14T09:59:33.792Z,596.25
2018-06-14T10:00:33.802Z,810.00
2018-06-14T10:01:33.812Z,2576.25
2018-06-14T10:02:33.824Z,973.13
2018-06-14T10:03:33.835Z,928.13
2018-06-14T10:04:33.847Z,607.50
2018-06-14T10:05:33.857Z,472.50
2018-06-14T10:06:33.868Z,399.38
2018-06-14T10:07:33.881Z,382.50
2018-06-14T10:08:33.890Z,371.25
2018-06-14T10:09:33.897Z,376.88
2018-06-14T10:10:33.908Z,388.13
2018-06-14T10:11:33.919Z,444.38
2018-06-14T10:12:33.932Z,523.13
2018-06-14T10:13:33.938Z,1158.75
2018-06-14T10:14:33.948Z,1203.75
2018-06-14T10:15:33.960Z,1153.13
2018-06-14T10:16:33.969Z,1085.63
2018-06-14T10:17:33.977Z,1035.00
2018-06-14T10:18:33.988Z,1029.38
2018-06-14T10:19:33.998Z,1040.63
2018-06-14T10:20:34.015Z,1051.88
2018-06-14T10:21:34.018Z,1035.00
2018-06-14T10:22:34.028Z,1080.00
2018-06-14T10:23:34.039Z,556.88
2018-06-14T10:24:34.050Z,753.75
2018-06-14T10:25:34.060Z,950.63
2018-06-14T10:26:34.071Z,1119.38
2018-06-14T10:27:34.083Z,1040.63
2018-06-14T10:28:34.093Z,1136.25
2018-06-14T10:29:34.105Z,1029.38
2018-06-14T10:30:34.115Z,1080.00
2018-06-14T10:31:34.126Z,742.50
2018-06-14T10:32:34.138Z,1231.88
2018-06-14T10:33:34.148Z,1175.63
2018-06-14T10:34:34.164Z,1181.25
2018-06-14T10:35:34.171Z,939.38
2018-06-14T10:36:34.182Z,1203.75
2018-06-14T10:37:34.194Z,1288.13
2018-06-14T10:38:34.205Z,1001.25
2018-06-14T10:39:34.216Z,720.00
2018-06-14T10:40:34.228Z,916.88
2018-06-14T10:41:34.239Z,1063.13
2018-06-14T10:42:34.251Z,703.13
2018-06-14T10:43:34.316Z,703.13
2018-06-14T10:44:34.275Z,663.75
2018-06-14T10:45:34.284Z,928.13
2018-06-14T10:46:34.296Z,866.25
2018-06-14T10:47:34.308Z,815.63
2018-06-14T10:48:34.319Z,680.63
2018-06-14T10:49:34.328Z,838.13
2018-06-14T10:50:34.340Z,810.00
2018-06-14T10:51:34.351Z,928.13
2018-06-14T10:52:34.363Z,860.63
2018-06-14T10:53:34.372Z,804.38
2018-06-14T10:54:34.382Z,866.25
2018-06-14T10:55:34.394Z,900.00
2018-06-14T10:56:34.403Z,860.63
2018-06-14T10:57:34.413Z,759.38
2018-06-14T10:58:34.424Z,658.13
2018-06-14T10:59:34.435Z,613.13
2018-06-14T11:00:34.444Z,624.38
2018-06-14T11:01:34.459Z,708.75
2018-06-14T11:02:34.465Z,776.25
2018-06-14T11:03:34.474Z,776.25
2018-06-14T11:04:34.486Z,798.75
2018-06-14T11:05:34.494Z,832.50
2018-06-14T11:06:34.505Z,905.63
2018-06-14T11:07:34.515Z,849.38
2018-06-14T11:08:34.525Z,843.75
2018-06-14T11:09:34.534Z,843.75
2018-06-14T11:10:34.546Z,804.38
2018-06-14T11:11:34.554Z,742.50
2018-06-14T11:12:34.565Z,708.75
2018-06-14T11:13:34.573Z,686.25
2018-06-14T11:14:34.583Z,697.50
2018-06-14T11:15:34.594Z,708.75
2018-06-14T11:16:34.603Z,703.13
2018-06-14T11:17:34.612Z,697.50
2018-06-14T11:18:34.621Z,759.38
2018-06-14T11:19:34.632Z,832.50
2018-06-14T11:20:34.642Z,787.50
2018-06-14T11:21:34.654Z,753.75
2018-06-14T11:22:34.660Z,731.25
2018-06-14T11:23:34.669Z,725.63
2018-06-14T11:24:34.678Z,770.63
2018-06-14T11:25:34.688Z,810.00
2018-06-14T11:26:34.697Z,810.00
2018-06-14T11:27:34.706Z,838.13
2018-06-14T11:28:34.720Z,849.38
2018-06-14T11:29:34.725Z,826.88
2018-06-14T11:30:34.735Z,815.63
2018-06-14T11:31:34.744Z,804.38
2018-06-14T11:32:34.754Z,770.63
2018-06-14T11:33:34.762Z,742.50
2018-06-14T11:34:34.772Z,725.63
2018-06-14T11:35:34.781Z,736.88
2018-06-14T11:36:34.791Z,787.50
2018-06-14T11:37:34.800Z,821.25
2018-06-14T11:38:34.809Z,804.38
2018-06-14T11:39:34.877Z,781.88
2018-06-14T11:40:34.827Z,753.75
2018-06-14T11:41:34.837Z,731.25
2018-06-14T11:42:34.851Z,742.50
2018-06-14T11:43:34.856Z,748.13
2018-06-14T11:44:34.865Z,753.75
2018-06-14T11:45:34.873Z,753.75
2018-06-14T11:46:34.883Z,714.38
2018-06-14T11:47:34.893Z,669.38
2018-06-14T11:48:34.904Z,641.25
2018-06-14T11:49:34.910Z,646.88
2018-06-14T11:50:34.922Z,680.63
2018-06-14T11:51:34.928Z,703.13
2018-06-14T11:52:34.937Z,731.25
2018-06-14T11:53:34.945Z,736.88
2018-06-14T11:54:34.954Z,736.88
2018-06-14T11:55:34.965Z,731.25
2018-06-14T11:56:34.974Z,736.88
2018-06-14T11:57:34.983Z,759.38
2018-06-14T11:58:34.993Z,736.88
2018-06-14T11:59:35.001Z,731.25
2018-06-14T12:00:35.010Z,714.38
2018-06-14T12:01:35.020Z,680.63
2018-06-14T12:02:35.028Z,669.38
2018-06-14T12:03:35.037Z,691.88
2018-06-14T12:04:35.046Z,714.38
2018-06-14T12:05:35.055Z,714.38
2018-06-14T12:06:35.064Z,708.75
2018-06-14T12:07:35.073Z,703.13
2018-06-14T12:08:35.081Z,714.38
2018-06-14T12:09:35.090Z,725.63
2018-06-14T12:10:35.100Z,736.88
2018-06-14T12:11:35.110Z,742.50
2018-06-14T12:12:35.118Z,748.13
2018-06-14T12:13:35.126Z,742.50
2018-06-14T12:14:35.141Z,736.88
2018-06-14T12:15:35.146Z,736.88
2018-06-14T12:16:35.154Z,736.88
2018-06-14T12:17:35.162Z,742.50
2018-06-14T12:18:35.171Z,759.38
2018-06-14T12:19:35.181Z,748.13
2018-06-14T12:20:35.190Z,742.50
2018-06-14T12:21:35.198Z,720.00
2018-06-14T12:22:35.208Z,703.13
2018-06-14T12:23:35.218Z,675.00
2018-06-14T12:24:35.226Z,663.75
2018-06-14T12:25:35.235Z,641.25
2018-06-14T12:26:35.245Z,641.25
2018-06-14T12:27:35.253Z,618.75
2018-06-14T12:28:35.263Z,596.25
2018-06-14T12:29:35.273Z,579.38
2018-06-14T12:30:35.282Z,568.13
2018-06-14T12:31:35.294Z,573.75
2018-06-14T12:32:35.300Z,579.38
2018-06-14T12:33:35.310Z,601.88
2018-06-14T12:34:35.315Z,658.13
2018-06-14T12:35:35.325Z,652.50
2018-06-14T12:36:35.335Z,630.00